Time;durP1;ratioP1;P1;durP2;ratioP2;P2;SDS_P1;SDS_P2;PMS_P1;PMS_P2;Temp;Humidity;BMP_temperature;BMP_pressure;BME280_temperature;BME280_humidity;BME280_pressure;Samples;Min_cycle;Max_cycle;Signal;HPM_P1;HPM_P2
2023/05/11 00:01:26;;;;;;;6.78;3.75;;;;;;;;;;1814933;79;27380;-52
2023/05/11 00:03:54;;;;;;;7.47;3.83;;;;;;;;;;1814851;79;25326;-54
2023/05/11 00:06:21;;;;;;;4.70;3.47;;;;;;;;;;1814910;79;25261;-52
2023/05/11 00:08:48;;;;;;;7.08;3.80;;;;;;;;;;1814894;78;25600;-55
2023/05/11 00:11:17;;;;;;;7.42;3.90;;;;;;;;;;1814929;79;25339;-53
2023/05/11 00:13:44;;;;;;;9.23;3.80;;;;;;;;;;1814942;78;27153;-53
2023/05/11 00:16:11;;;;;;;13.18;3.72;;;;;;;;;;1814857;79;25306;-53
2023/05/11 00:18:38;;;;;;;5.47;4.25;;;;;;;;;;1814942;78;25365;-52
2023/05/11 00:21:06;;;;;;;5.53;3.77;;;;;;;;;;1814891;79;25604;-52
2023/05/11 00:23:33;;;;;;;5.40;3.50;;;;;;;;;;1785731;79;25323;-52
2023/05/11 00:26:00;;;;;;;6.85;3.92;;;;;;;;;;1814922;78;27457;-53
2023/05/11 00:28:27;;;;;;;8.35;3.72;;;;;;;;;;1814841;78;25301;-54
2023/05/11 00:30:56;;;;;;;7.12;3.92;;;;;;;;;;1814947;79;25342;-52
2023/05/11 00:33:23;;;;;;;9.13;4.37;;;;;;;;;;1815026;78;25565;-52
2023/05/11 00:35:50;;;;;;;7.08;3.92;;;;;;;;;;1814944;79;25335;-55
2023/05/11 00:38:17;;;;;;;5.90;3.77;;;;;;;;;;1814924;79;27184;-55
2023/05/11 00:40:44;;;;;;;6.95;4.03;;;;;;;;;;1814835;78;25335;-54
2023/05/11 00:43:11;;;;;;;7.28;4.28;;;;;;;;;;1814949;79;25346;-53
2023/05/11 00:45:39;;;;;;;5.62;4.40;;;;;;;;;;1814870;79;25669;-54
2023/05/11 00:48:07;;;;;;;8.53;3.70;;;;;;;;;;1814936;79;25350;-52
2023/05/11 00:50:35;;;;;;;5.75;4.25;;;;;;;;;;1814921;78;27191;-55
2023/05/11 00:53:02;;;;;;;5.42;3.55;;;;;;;;;;1814794;79;25687;-55
2023/05/11 00:55:29;;;;;;;6.85;4.15;;;;;;;;;;1814835;79;26501;-55
2023/05/11 00:57:56;;;;;;;7.37;3.98;;;;;;;;;;1814895;79;25717;-55
2023/05/11 01:00:23;;;;;;;6.00;3.40;;;;;;;;;;1814976;78;25362;-55
2023/05/11 01:02:51;;;;;;;5.58;3.83;;;;;;;;;;1814933;78;27225;-55
2023/05/11 01:05:18;;;;;;;26.02;24.07;;;;;;;;;;1814821;78;25444;-55
2023/05/11 01:07:49;;;;;;;5.05;3.80;;;;;;;;;;1814972;79;25275;-52
2023/05/11 01:10:20;;;;;;;6.17;4.05;;;;;;;;;;1814867;79;25618;-52
2023/05/11 01:12:56;;;;;;;9.70;3.70;;;;;;;;;;1814917;79;25307;-53
2023/05/11 01:15:27;;;;;;;7.00;3.77;;;;;;;;;;1814944;79;27228;-53
2023/05/11 01:18:13;;;;;;;6.08;3.20;;;;;;;;;;1814840;78;25339;-52
2023/05/11 01:20:43;;;;;;;8.05;4.37;;;;;;;;;;1814949;79;25308;-52
2023/05/11 01:23:30;;;;;;;6.85;4.25;;;;;;;;;;1814957;79;25557;-51
2023/05/11 01:26:23;;;;;;;7.00;3.75;;;;;;;;;;1815105;79;25309;-52
2023/05/11 01:29:21;;;;;;;8.60;4.05;;;;;;;;;;1815079;79;27374;-52
2023/05/11 01:31:49;;;;;;;6.00;4.78;;;;;;;;;;1815013;79;25291;-51
2023/05/11 01:34:19;;;;;;;8.10;4.25;;;;;;;;;;1815068;79;25275;-52
2023/05/11 01:36:59;;;;;;;7.22;5.30;;;;;;;;;;1814779;79;25604;-52
2023/05/11 01:39:29;;;;;;;5.30;3.92;;;;;;;;;;1814943;79;25315;-52
2023/05/11 01:41:57;;;;;;;6.53;4.67;;;;;;;;;;1815048;79;27244;-53
2023/05/11 01:44:25;;;;;;;6.90;3.90;;;;;;;;;;1814988;79;25264;-53
2023/05/11 01:46:52;;;;;;;9.48;4.55;;;;;;;;;;1815039;78;25284;-52
2023/05/11 01:49:20;;;;;;;6.28;3.77;;;;;;;;;;1814996;79;25462;-52
2023/05/11 01:51:50;;;;;;;5.83;4.53;;;;;;;;;;1815069;78;25253;-52
2023/05/11 01:54:18;;;;;;;6.67;4.80;;;;;;;;;;1815180;79;27184;-51
2023/05/11 01:56:47;;;;;;;6.42;4.22;;;;;;;;;;1803635;78;25724;-52
2023/05/11 01:59:14;;;;;;;8.65;4.45;;;;;;;;;;1796619;79;25314;-51
2023/05/11 02:01:41;;;;;;;6.35;4.35;;;;;;;;;;1796852;79;25597;-51
2023/05/11 02:04:08;;;;;;;5.53;3.72;;;;;;;;;;1796905;79;25299;-52
2023/05/11 02:06:37;;;;;;;6.65;3.90;;;;;;;;;;1796878;79;27310;-53
2023/05/11 02:09:04;;;;;;;8.65;4.65;;;;;;;;;;1796933;79;25292;-52
2023/05/11 02:11:32;;;;;;;6.40;4.90;;;;;;;;;;1796895;79;25339;-52
2023/05/11 02:13:59;;;;;;;5.85;4.30;;;;;;;;;;1796835;79;25394;-53
2023/05/11 02:16:27;;;;;;;11.45;4.42;;;;;;;;;;1772323;79;25330;-55
2023/05/11 02:18:55;;;;;;;9.78;4.50;;;;;;;;;;1796797;79;27193;-51
2023/05/11 02:21:23;;;;;;;5.90;4.28;;;;;;;;;;1778973;80;25549;-52
2023/05/11 02:23:51;;;;;;;7.25;4.55;;;;;;;;;;1796583;79;25320;-53
2023/05/11 02:26:19;;;;;;;5.97;4.40;;;;;;;;;;1796539;79;25582;-53
2023/05/11 02:28:46;;;;;;;5.28;4.55;;;;;;;;;;1796608;79;25283;-55
2023/05/11 02:31:22;;;;;;;11.48;4.50;;;;;;;;;;1796847;79;27336;-53
2023/05/11 02:33:51;;;;;;;9.15;4.78;;;;;;;;;;1796754;79;25432;-52
2023/05/11 02:36:20;;;;;;;5.25;4.37;;;;;;;;;;1796987;79;25277;-51
2023/05/11 02:38:48;;;;;;;8.95;4.25;;;;;;;;;;1796952;79;25867;-54
2023/05/11 02:41:19;;;;;;;8.33;4.33;;;;;;;;;;1796893;79;25278;-55
2023/05/11 02:43:48;;;;;;;15.10;4.50;;;;;;;;;;1796847;79;27346;-51
2023/05/11 02:46:19;;;;;;;11.12;4.70;;;;;;;;;;1779077;80;29635;-52
2023/05/11 02:48:51;;;;;;;9.75;4.60;;;;;;;;;;1795333;79;25282;-52
2023/05/11 02:51:21;;;;;;;6.67;4.15;;;;;;;;;;1763462;81;25790;-52
2023/05/11 02:53:49;;;;;;;8.40;4.30;;;;;;;;;;1796595;79;25342;-51
2023/05/11 02:56:16;;;;;;;6.25;4.28;;;;;;;;;;1795539;79;27183;-52
2023/05/11 02:58:43;;;;;;;6.75;4.05;;;;;;;;;;1814901;79;25390;-52
2023/05/11 03:01:11;;;;;;;7.40;4.67;;;;;;;;;;1815012;79;25346;-55
2023/05/11 03:03:38;;;;;;;7.03;4.92;;;;;;;;;;1814975;79;26177;-53
2023/05/11 03:06:05;;;;;;;5.15;4.60;;;;;;;;;;1815001;79;25338;-52
2023/05/11 03:08:33;;;;;;;8.18;4.50;;;;;;;;;;1814997;79;27395;-52
2023/05/11 03:10:59;;;;;;;8.38;4.42;;;;;;;;;;1814911;79;25449;-51
2023/05/11 03:13:27;;;;;;;7.28;4.10;;;;;;;;;;1814990;79;25343;-52
2023/05/11 03:15:55;;;;;;;13.45;5.30;;;;;;;;;;1814959;79;25690;-52
2023/05/11 03:18:24;;;;;;;8.50;4.37;;;;;;;;;;1815009;79;25346;-54
2023/05/11 03:20:51;;;;;;;6.87;4.23;;;;;;;;;;1815246;79;27244;-52
2023/05/11 03:23:18;;;;;;;7.65;4.87;;;;;;;;;;1814896;78;25290;-52
2023/05/11 03:25:46;;;;;;;7.78;4.53;;;;;;;;;;1814973;78;25321;-56
2023/05/11 03:28:13;;;;;;;9.30;4.30;;;;;;;;;;1814921;79;26231;-55
2023/05/11 03:30:42;;;;;;;10.13;4.37;;;;;;;;;;1815003;78;25295;-55
2023/05/11 03:33:09;;;;;;;8.17;4.70;;;;;;;;;;1785984;79;27900;-55
2023/05/11 03:35:36;;;;;;;6.33;4.58;;;;;;;;;;1785657;79;25355;-54
2023/05/11 03:38:04;;;;;;;7.35;4.00;;;;;;;;;;1814984;79;25330;-55
2023/05/11 03:40:33;;;;;;;9.15;4.33;;;;;;;;;;1814933;78;25622;-54
2023/05/11 03:43:02;;;;;;;7.53;4.42;;;;;;;;;;1815124;79;32119;-53
2023/05/11 03:45:30;;;;;;;8.03;4.40;;;;;;;;;;1815191;79;27245;-52
2023/05/11 03:47:58;;;;;;;8.83;4.58;;;;;;;;;;1785956;79;25373;-54
2023/05/11 03:50:26;;;;;;;9.60;4.47;;;;;;;;;;1814994;79;25327;-55
2023/05/11 03:52:53;;;;;;;7.20;4.25;;;;;;;;;;1814988;78;26211;-55
2023/05/11 03:55:21;;;;;;;7.83;4.30;;;;;;;;;;1815055;79;25275;-55
2023/05/11 03:57:49;;;;;;;6.65;4.30;;;;;;;;;;1814944;78;27917;-55
2023/05/11 04:00:16;;;;;;;6.62;4.20;;;;;;;;;;1814868;78;25026;-55
2023/05/11 04:02:43;;;;;;;6.80;3.95;;;;;;;;;;1814979;79;25281;-54
2023/05/11 04:05:11;;;;;;;5.40;3.60;;;;;;;;;;1814887;78;25761;-56
2023/05/11 04:07:38;;;;;;;5.17;4.15;;;;;;;;;;1814979;79;25334;-56
2023/05/11 04:10:06;;;;;;;6.30;4.17;;;;;;;;;;1814938;79;27811;-56
2023/05/11 04:12:33;;;;;;;8.08;4.10;;;;;;;;;;1814858;79;25442;-56
2023/05/11 04:15:00;;;;;;;6.28;3.92;;;;;;;;;;1814947;79;25303;-55
2023/05/11 04:17:27;;;;;;;5.40;4.10;;;;;;;;;;1814905;79;25682;-55
2023/05/11 04:19:54;;;;;;;3.87;3.47;;;;;;;;;;1814967;79;25304;-56
2023/05/11 04:22:22;;;;;;;7.75;3.98;;;;;;;;;;1814934;79;27710;-52
2023/05/11 04:24:48;;;;;;;6.78;4.00;;;;;;;;;;1814848;78;25279;-55
2023/05/11 04:27:15;;;;;;;6.37;3.90;;;;;;;;;;1814889;78;25331;-54
2023/05/11 04:29:43;;;;;;;8.03;4.28;;;;;;;;;;1814895;79;25679;-52
2023/05/11 04:32:10;;;;;;;5.90;4.22;;;;;;;;;;1814925;79;25280;-51
2023/05/11 04:34:37;;;;;;;7.55;3.98;;;;;;;;;;1814922;79;27781;-52
2023/05/11 04:37:06;;;;;;;8.95;4.22;;;;;;;;;;1785499;79;25484;-53
2023/05/11 04:39:33;;;;;;;10.28;3.83;;;;;;;;;;1814929;79;25317;-52
2023/05/11 04:42:00;;;;;;;7.50;4.00;;;;;;;;;;1814871;79;26230;-52
2023/05/11 04:44:27;;;;;;;7.20;3.87;;;;;;;;;;1814960;78;25268;-52
2023/05/11 04:46:55;;;;;;;6.47;4.03;;;;;;;;;;1814933;78;27771;-51
2023/05/11 04:49:22;;;;;;;9.73;4.03;;;;;;;;;;1814862;79;25297;-54
2023/05/11 04:51:49;;;;;;;8.45;4.05;;;;;;;;;;1814954;78;25312;-50
2023/05/11 04:54:15;;;;;;;5.87;3.70;;;;;;;;;;1814912;78;25636;-55
2023/05/11 04:56:42;;;;;;;9.05;3.90;;;;;;;;;;1812300;79;25331;-54
2023/05/11 04:59:09;;;;;;;8.53;4.00;;;;;;;;;;1763375;81;27304;-54
2023/05/11 05:01:36;;;;;;;8.53;3.55;;;;;;;;;;1796380;79;25321;-53
2023/05/11 05:04:03;;;;;;;4.83;3.80;;;;;;;;;;1796768;79;25270;-52
2023/05/11 05:06:31;;;;;;;12.53;3.98;;;;;;;;;;1796691;79;25667;-50
2023/05/11 05:08:57;;;;;;;6.97;4.25;;;;;;;;;;1796774;79;25345;-50
2023/05/11 05:11:24;;;;;;;6.33;3.62;;;;;;;;;;1796770;79;27191;-51
2023/05/11 05:13:52;;;;;;;6.22;3.95;;;;;;;;;;1796640;79;25463;-50
2023/05/11 05:16:19;;;;;;;9.03;6.45;;;;;;;;;;1752304;80;25379;-55
2023/05/11 05:18:46;;;;;;;6.78;3.50;;;;;;;;;;1796426;79;25689;-50
2023/05/11 05:21:13;;;;;;;8.48;6.75;;;;;;;;;;1763396;80;25301;-53
2023/05/11 05:23:40;;;;;;;7.45;4.00;;;;;;;;;;1796441;79;27275;-52
2023/05/11 05:26:07;;;;;;;9.20;4.95;;;;;;;;;;1772021;79;25416;-53
2023/05/11 05:28:34;;;;;;;9.90;3.95;;;;;;;;;;1796744;79;25294;-52
2023/05/11 05:31:01;;;;;;;5.20;3.45;;;;;;;;;;1796681;79;25514;-54
2023/05/11 05:33:28;;;;;;;6.62;3.55;;;;;;;;;;1796777;79;25302;-58
2023/05/11 05:35:55;;;;;;;11.18;3.75;;;;;;;;;;1772112;79;27743;-56
2023/05/11 05:38:22;;;;;;;5.55;3.90;;;;;;;;;;1796799;79;25343;-58
2023/05/11 05:40:49;;;;;;;6.47;3.50;;;;;;;;;;1779077;80;25331;-56
2023/05/11 05:43:18;;;;;;;8.20;3.40;;;;;;;;;;1796422;79;26202;-56
2023/05/11 05:45:45;;;;;;;5.63;3.83;;;;;;;;;;1763605;81;25315;-56
2023/05/11 05:48:12;;;;;;;7.75;3.95;;;;;;;;;;1796410;79;27317;-56
2023/05/11 05:50:40;;;;;;;7.80;4.12;;;;;;;;;;1796643;79;25242;-53
2023/05/11 05:53:07;;;;;;;6.15;3.08;;;;;;;;;;1796749;79;25279;-55
2023/05/11 05:55:34;;;;;;;8.38;3.98;;;;;;;;;;1796681;79;25662;-55
2023/05/11 05:58:01;;;;;;;10.40;3.72;;;;;;;;;;1803480;78;25282;-56
2023/05/11 06:00:28;;;;;;;69.77;64.67;;;;;;;;;;1809440;79;27798;-56
2023/05/11 06:02:55;;;;;;;50.98;47.85;;;;;;;;;;1809361;79;25432;-54
2023/05/11 06:05:22;;;;;;;5.42;5.22;;;;;;;;;;1784576;80;25424;-57
2023/05/11 06:07:49;;;;;;;13.48;12.80;;;;;;;;;;1809336;79;25622;-54
2023/05/11 06:10:16;;;;;;;6.20;3.30;;;;;;;;;;1809667;79;25343;-57
2023/05/11 06:12:42;;;;;;;5.92;3.20;;;;;;;;;;1808962;78;27245;-54
2023/05/11 06:15:10;;;;;;;7.47;3.37;;;;;;;;;;1809520;79;25407;-56
2023/05/11 06:17:37;;;;;;;12.50;3.08;;;;;;;;;;1809337;78;25276;-57
2023/05/11 06:20:05;;;;;;;64.25;60.23;;;;;;;;;;1809463;79;25696;-55
2023/05/11 06:22:34;;;;;;;7.87;2.62;;;;;;;;;;1785175;80;25302;-56
2023/05/11 06:25:01;;;;;;;7.77;2.80;;;;;;;;;;1809865;79;27186;-54
2023/05/11 06:27:28;;;;;;;8.40;2.75;;;;;;;;;;1809499;79;25338;-54
2023/05/11 06:29:56;;;;;;;6.25;2.70;;;;;;;;;;1809612;79;25282;-57
2023/05/11 06:32:23;;;;;;;4.25;2.90;;;;;;;;;;1809582;79;25685;-56
2023/05/11 06:34:50;;;;;;;6.08;2.77;;;;;;;;;;1809633;78;25280;-57
2023/05/11 06:37:20;;;;;;;4.75;2.70;;;;;;;;;;1809681;78;27758;-54
2023/05/11 06:39:47;;;;;;;5.22;3.00;;;;;;;;;;1809515;79;25496;-57
2023/05/11 06:42:14;;;;;;;7.28;2.50;;;;;;;;;;1809612;79;25336;-57
2023/05/11 06:44:41;;;;;;;8.98;2.77;;;;;;;;;;1809559;78;26175;-56
2023/05/11 06:47:08;;;;;;;4.85;2.70;;;;;;;;;;1809606;79;25323;-56
2023/05/11 06:49:35;;;;;;;8.28;2.70;;;;;;;;;;1809619;78;27213;-55
2023/05/11 06:52:02;;;;;;;7.37;3.40;;;;;;;;;;1809512;79;25344;-56
2023/05/11 06:54:29;;;;;;;5.55;2.55;;;;;;;;;;1809618;78;25348;-56
2023/05/11 06:56:56;;;;;;;7.65;2.77;;;;;;;;;;1809556;79;25815;-56
2023/05/11 06:59:24;;;;;;;5.53;2.72;;;;;;;;;;1809600;78;25324;-57
2023/05/11 07:01:51;;;;;;;6.12;2.35;;;;;;;;;;1809637;78;27910;-55
2023/05/11 07:04:18;;;;;;;6.25;2.77;;;;;;;;;;1809512;78;25311;-56
2023/05/11 07:06:45;;;;;;;7.10;3.15;;;;;;;;;;1809573;79;25319;-58
2023/05/11 07:09:12;;;;;;;8.83;2.42;;;;;;;;;;1809514;78;26153;-57
2023/05/11 07:11:39;;;;;;;7.22;2.50;;;;;;;;;;1809609;79;25366;-57
2023/05/11 07:14:07;;;;;;;6.45;2.55;;;;;;;;;;1809573;78;27188;-55
2023/05/11 07:16:37;;;;;;;3.42;2.30;;;;;;;;;;1809499;79;25440;-57
2023/05/11 07:19:09;;;;;;;4.15;2.10;;;;;;;;;;1809608;79;25267;-56
2023/05/11 07:21:36;;;;;;;4.40;2.30;;;;;;;;;;1809570;79;25619;-57
2023/05/11 07:24:03;;;;;;;7.90;4.65;;;;;;;;;;1809593;78;25345;-58
2023/05/11 07:26:31;;;;;;;5.42;2.90;;;;;;;;;;1809564;78;27681;-57
2023/05/11 07:28:58;;;;;;;7.92;2.33;;;;;;;;;;1809587;78;25350;-58
2023/05/11 07:31:26;;;;;;;3.05;1.72;;;;;;;;;;1809719;78;25335;-58
2023/05/11 07:33:53;;;;;;;6.00;2.08;;;;;;;;;;1809538;78;25545;-57
2023/05/11 07:36:20;;;;;;;5.65;2.40;;;;;;;;;;1809635;79;24973;-55
2023/05/11 07:38:47;;;;;;;3.87;2.40;;;;;;;;;;1809574;79;27829;-56
2023/05/11 07:41:14;;;;;;;4.92;1.95;;;;;;;;;;1809570;79;25446;-59
2023/05/11 07:43:41;;;;;;;9.18;2.75;;;;;;;;;;1809607;78;24964;-56
2023/05/11 07:46:08;;;;;;;1.45;1.45;;;;;;;;;;1809596;78;25636;-56
2023/05/11 07:48:35;;;;;;;4.25;1.92;;;;;;;;;;1809603;78;25328;-54
2023/05/11 07:51:02;;;;;;;5.03;2.25;;;;;;;;;;1809575;79;27813;-56
2023/05/11 07:53:30;;;;;;;2.42;1.77;;;;;;;;;;1809417;79;25301;-56
2023/05/11 07:55:59;;;;;;;6.78;2.50;;;;;;;;;;1809591;79;25343;-57
2023/05/11 07:58:26;;;;;;;4.45;1.90;;;;;;;;;;1804216;78;25662;-57
2023/05/11 08:00:53;;;;;;;11.08;5.42;;;;;;;;;;1796596;79;25313;-57
2023/05/11 08:03:20;;;;;;;11.25;4.65;;;;;;;;;;1796535;79;27687;-57
2023/05/11 08:05:47;;;;;;;3.45;2.22;;;;;;;;;;1796441;79;25297;-56
2023/05/11 08:08:14;;;;;;;3.83;2.27;;;;;;;;;;1796507;79;25308;-56
2023/05/11 08:10:41;;;;;;;4.05;1.70;;;;;;;;;;1796487;79;25658;-58
2023/05/11 08:13:08;;;;;;;4.53;2.15;;;;;;;;;;1796571;79;25300;-57
2023/05/11 08:15:35;;;;;;;3.05;1.92;;;;;;;;;;1796526;79;27168;-57
2023/05/11 08:18:02;;;;;;;8.30;2.50;;;;;;;;;;1796524;79;25403;-57
2023/05/11 08:20:29;;;;;;;5.40;1.87;;;;;;;;;;1796539;79;25352;-55
2023/05/11 08:22:56;;;;;;;6.65;2.10;;;;;;;;;;1796497;79;25680;-54
2023/05/11 08:25:23;;;;;;;6.53;2.00;;;;;;;;;;1796561;79;25308;-56
2023/05/11 08:27:50;;;;;;;3.65;1.90;;;;;;;;;;1796499;79;27206;-53
2023/05/11 08:30:17;;;;;;;5.08;2.50;;;;;;;;;;1796473;79;25567;-57
2023/05/11 08:32:45;;;;;;;5.92;1.92;;;;;;;;;;1796527;79;25384;-56
2023/05/11 08:35:12;;;;;;;4.28;2.08;;;;;;;;;;1796544;79;25669;-58
2023/05/11 08:37:39;;;;;;;3.85;2.10;;;;;;;;;;1796637;79;25307;-56
2023/05/11 08:40:08;;;;;;;4.47;2.27;;;;;;;;;;1796623;79;27196;-56
2023/05/11 08:42:38;;;;;;;5.50;1.95;;;;;;;;;;1796593;79;25571;-56
2023/05/11 08:45:06;;;;;;;2.87;1.92;;;;;;;;;;1796527;79;25344;-54
2023/05/11 08:50:52;;;;;;;5.25;2.08;;;;;;;22.00;21.00;100919.08;1868375;76;25426;-56
2023/05/11 08:53:18;;;;;;;7.05;2.12;;;;;;;21.90;21.15;100910.08;1824498;78;25438;-54
2023/05/11 08:55:50;;;;;;;3.58;1.67;;;;;;;22.14;21.42;100918.48;1824471;78;27530;-55
2023/05/11 08:58:23;;;;;;;9.10;3.05;;;;;;;22.30;20.97;100932.69;1824438;78;25408;-54
2023/05/11 09:00:51;;;;;;;4.55;2.08;;;;;;;22.28;20.99;100912.98;1824486;78;25511;-53
2023/05/11 09:03:21;;;;;;;5.22;1.90;;;;;;;22.47;21.25;100910.06;1824388;78;25550;-56
2023/05/11 09:05:51;;;;;;;15.55;2.47;;;;;;;22.67;20.07;100904.40;1824525;78;25562;-54
2023/05/11 09:08:20;;;;;;;3.25;2.02;;;;;;;22.64;20.90;100918.34;1824272;78;27486;-54
2023/05/11 09:10:50;;;;;;;4.40;2.10;;;;;;;22.69;20.70;100904.21;1824293;78;25461;-55
2023/05/11 09:13:23;;;;;;;4.35;1.87;;;;;;;22.99;21.09;100913.61;1824474;78;25178;-56
2023/05/11 09:15:49;;;;;;;7.45;6.78;;;;;;;23.33;20.86;100916.29;1823854;78;25757;-55
2023/05/11 09:18:17;;;;;;;6.80;2.12;;;;;;;23.50;20.21;100905.41;1824664;78;25600;-53
2023/05/11 09:20:47;;;;;;;2.95;1.98;;;;;;;23.72;20.34;100919.95;1824349;78;27457;-56
2023/05/11 09:23:17;;;;;;;4.47;2.10;;;;;;;23.78;19.83;100923.94;1803179;78;25890;-56
2023/05/11 09:25:47;;;;;;;7.37;2.10;;;;;;;23.67;19.37;100908.69;1824460;78;25571;-55
2023/05/11 09:28:15;;;;;;;3.65;2.10;;;;;;;23.58;19.26;100913.17;1824304;78;25472;-55
2023/05/11 09:30:42;;;;;;;5.97;3.02;;;;;;;23.55;19.57;100907.59;1822967;78;25578;-56
2023/05/11 09:33:10;;;;;;;3.60;2.13;;;;;;;23.77;20.70;100905.78;1824611;78;27463;-55
2023/05/11 09:35:37;;;;;;;7.47;2.08;;;;;;;24.32;20.80;100903.56;1824061;78;27408;-54
2023/05/11 09:38:11;;;;;;;4.10;1.95;;;;;;;24.70;20.33;100905.48;1824363;77;25562;-57
2023/05/11 09:40:51;;;;;;;4.78;4.00;;;;;;;24.82;19.72;100894.65;1824381;78;25558;-57
2023/05/11 09:43:22;;;;;;;8.40;2.72;;;;;;;24.85;19.74;100892.48;1824469;78;25388;-57
2023/05/11 09:45:54;;;;;;;6.15;2.75;;;;;;;25.15;19.71;100894.91;1823531;78;27708;-57
2023/05/11 09:48:32;;;;;;;2.58;2.20;;;;;;;25.26;18.52;100897.09;1824327;78;25547;-56
2023/05/11 09:51:09;;;;;;;4.17;2.27;;;;;;;25.13;19.02;100884.80;1824400;78;25807;-57
2023/05/11 09:53:44;;;;;;;5.33;2.20;;;;;;;25.12;19.62;100877.09;1824407;78;25524;-55
2023/05/11 09:56:14;;;;;;;6.72;2.40;;;;;;;25.39;19.14;100882.84;1824356;78;25576;-53
2023/05/11 09:58:54;;;;;;;3.25;1.80;;;;;;;25.38;18.89;100894.52;1824301;78;27526;-53
2023/05/11 10:01:36;;;;;;;4.97;2.30;;;;;;;25.29;18.22;100908.77;1823953;78;25781;-57
2023/05/11 10:04:07;;;;;;;3.08;1.92;;;;;;;24.89;18.47;100884.97;1823769;78;25438;-57
2023/05/11 10:06:51;;;;;;;2.90;1.92;;;;;;;24.57;18.71;100897.56;1823749;78;25492;-54
2023/05/11 10:09:24;;;;;;;7.75;2.27;;;;;;;24.61;19.34;100885.91;1823866;78;25588;-57
2023/05/11 10:11:54;;;;;;;4.70;2.25;;;;;;;24.99;18.82;100870.36;1824126;78;27516;-52
2023/05/11 10:14:28;;;;;;;2.75;1.90;;;;;;;24.95;18.97;100881.42;1823791;78;25746;-53
2023/05/11 10:16:59;;;;;;;5.20;2.25;;;;;;;24.90;19.04;100882.42;1823746;78;25413;-54
2023/05/11 10:19:33;;;;;;;4.47;2.45;;;;;;;25.02;18.92;100868.20;1823829;78;26345;-56
2023/05/11 10:22:04;;;;;;;4.95;2.17;;;;;;;24.92;18.95;100866.20;1823806;78;25542;-57
2023/05/11 10:24:36;;;;;;;4.53;2.02;;;;;;;25.11;18.56;100863.65;1823742;78;27558;-56
2023/05/11 10:27:07;;;;;;;4.70;1.95;;;;;;;25.00;18.54;100863.66;1823596;78;25499;-56
2023/05/11 10:29:33;;;;;;;4.25;2.02;;;;;;;25.18;19.25;100865.03;1803298;78;25757;-54
2023/05/11 10:32:07;;;;;;;8.00;3.60;;;;;;;25.29;19.23;100863.69;1823684;78;27409;-55
2023/05/11 10:34:41;;;;;;;5.42;1.57;;;;;;;25.41;18.72;100861.89;1823809;78;25444;-51
2023/05/11 10:37:13;;;;;;;3.00;2.10;;;;;;;25.31;18.79;100853.00;1823765;78;27456;-51
2023/05/11 10:39:47;;;;;;;4.20;2.15;;;;;;;25.25;18.77;100864.23;1823637;78;25580;-55
2023/05/11 10:42:47;;;;;;;2.65;2.08;;;;;;;25.09;18.52;100864.05;1823700;78;25425;-55
2023/05/11 10:45:41;;;;;;;11.75;7.28;;;;;;;25.26;18.88;100853.41;1821695;78;25878;-51
2023/05/11 10:48:46;;;;;;;21.10;3.52;;;;;;;25.47;18.11;100842.31;1823741;78;25501;-51
2023/05/11 10:51:53;;;;;;;8.23;2.00;;;;;;;25.72;19.06;100856.09;1823633;78;28191;-52
2023/05/11 10:54:50;;;;;;;2.20;2.00;;;;;;;26.01;18.84;100851.88;1823761;78;25585;-51
2023/05/11 10:57:55;;;;;;;6.53;2.45;;;;;;;26.12;18.69;100845.51;1821802;78;25527;-52
2023/05/11 11:01:12;;;;;;;6.28;2.00;;;;;;;26.47;18.54;100852.26;1823693;78;25526;-50
2023/05/11 11:03:38;;;;;;;4.12;2.12;;;;;;;25.82;17.71;100848.17;1823720;78;25518;-52
2023/05/11 11:06:10;;;;;;;5.90;2.17;;;;;;;25.27;18.35;100841.16;1823677;78;27466;-50
2023/05/11 11:09:00;;;;;;;4.97;1.92;;;;;;;25.45;18.66;100841.13;1788876;79;25398;-51
2023/05/11 11:11:34;;;;;;;11.15;8.55;;;;;;;25.67;18.64;100840.48;1790859;79;25569;-53
2023/05/11 11:14:08;;;;;;;8.95;3.98;;;;;;;26.06;19.22;100834.84;1791237;80;25437;-51
2023/05/11 11:16:40;;;;;;;6.33;3.92;;;;;;;26.40;18.87;100835.67;1791220;80;25617;-53
2023/05/11 11:19:33;;;;;;;5.33;2.65;;;;;;;26.71;18.63;100837.89;1791305;80;28185;-50
2023/05/11 11:22:01;;;;;;;2.83;2.10;;;;;;;26.54;17.79;100845.10;1791318;79;25689;-51
2023/05/11 11:24:43;;;;;;;4.50;1.70;;;;;;;25.83;17.90;100842.80;1791543;80;25410;-49
2023/05/11 11:27:09;;;;;;;3.22;2.45;;;;;;;25.64;17.87;100840.70;1791330;80;25380;-52
2023/05/11 11:29:39;;;;;;;8.18;2.10;;;;;;;25.79;18.48;100830.95;1791347;79;25444;-51
2023/05/11 11:32:24;;;;;;;8.25;2.70;;;;;;;26.04;18.79;100830.91;1791454;80;27419;-52
2023/05/11 11:34:51;;;;;;;5.95;2.62;;;;;;;26.08;18.44;100828.32;1791369;80;25641;-54
2023/05/11 11:37:19;;;;;;;6.03;2.30;;;;;;;26.07;18.88;100817.03;1791328;80;25373;-54
2023/05/11 11:39:49;;;;;;;6.22;2.27;;;;;;;26.30;18.33;100828.20;1791290;80;25756;-56
2023/05/11 11:42:20;;;;;;;4.92;2.08;;;;;;;26.14;18.79;100821.75;1791367;80;25181;-53
2023/05/11 11:44:47;;;;;;;6.30;2.12;;;;;;;26.44;18.66;100837.03;1770820;80;28073;-55
2023/05/11 11:47:18;;;;;;;2.77;1.80;;;;;;;26.34;18.07;100840.66;1791209;80;25578;-56
2023/05/11 11:49:54;;;;;;;3.85;2.10;;;;;;;26.27;18.29;100830.39;1790146;79;25486;-58
2023/05/11 11:52:32;;;;;;;1.92;1.72;;;;;;;26.21;17.37;100817.55;1791307;79;25511;-59
2023/05/11 11:55:02;;;;;;;4.17;1.90;;;;;;;25.93;17.57;100830.89;1791631;80;25622;-53
2023/05/11 11:57:42;;;;;;;5.97;2.25;;;;;;;25.47;17.31;100837.36;1791336;80;28097;-54
2023/05/11 12:00:11;;;;;;;5.67;1.95;;;;;;;25.09;17.86;100841.13;1790633;79;25679;-57
2023/05/11 12:02:43;;;;;;;4.00;1.95;;;;;;;24.92;18.55;100833.79;1791444;80;25442;-58
2023/05/11 12:05:18;;;;;;;5.87;1.98;;;;;;;25.16;18.59;100824.50;1791253;80;25413;-58
2023/05/11 12:07:49;;;;;;;2.52;2.00;;;;;;;25.51;19.33;100828.47;1791337;80;25529;-59
2023/05/11 12:10:18;;;;;;;3.35;1.80;;;;;;;25.82;17.99;100830.95;1791307;80;27453;-56
2023/05/11 12:12:47;;;;;;;5.17;2.15;;;;;;;25.53;18.04;100835.77;1791233;80;25529;-54
2023/05/11 12:15:30;;;;;;;6.42;1.90;;;;;;;25.17;18.25;100821.34;1791527;80;32660;-55
2023/05/11 12:17:56;;;;;;;6.47;1.87;;;;;;;25.14;18.13;100826.28;1790911;79;25543;-56
2023/05/11 12:20:24;;;;;;;4.03;1.90;;;;;;;25.04;18.36;100824.31;1791337;80;25598;-49
2023/05/11 12:22:51;;;;;;;12.95;9.25;;;;;;;25.04;18.31;100822.14;1791274;80;27447;-51
2023/05/11 12:25:20;;;;;;;4.67;2.02;;;;;;;24.76;17.70;100809.89;1791194;80;25778;-50
2023/05/11 12:27:54;;;;;;;;;;;;;;;24.49;17.92;100814.35;1793924;80;25536;-51
2023/05/11 12:30:24;;;;;;;2.77;1.80;;;;;;;24.29;18.70;100818.05;1791278;79;25385;-49
2023/05/11 12:32:52;;;;;;;2.60;1.57;;;;;;;24.42;18.95;100824.80;1790992;79;25518;-51
2023/05/11 12:35:28;;;;;;;3.42;1.87;;;;;;;24.79;19.60;100813.23;1791277;80;27437;-53
2023/05/11 12:37:58;;;;;;;2.12;1.87;;;;;;;25.35;19.14;100804.76;1791237;80;25573;-54
2023/05/11 12:40:24;;;;;;;2.20;2.00;;;;;;;25.24;18.85;100804.55;1791292;80;25475;-51
2023/05/11 12:42:59;;;;;;;6.30;2.00;;;;;;;25.22;18.55;100816.02;1791207;80;25368;-57
2023/05/11 12:45:28;;;;;;;4.17;2.10;;;;;;;24.87;18.23;100811.27;1791305;80;25423;-53
2023/05/11 12:47:57;;;;;;;3.60;1.90;;;;;;;24.63;18.72;100801.17;1789929;80;27619;-53
2023/05/11 12:50:23;;;;;;;4.62;2.05;;;;;;;24.85;19.14;100803.97;1792433;79;25683;-53
2023/05/11 12:52:52;;;;;;;2.95;1.87;;;;;;;24.85;18.84;100795.06;1796757;79;25615;-52
2023/05/11 12:55:29;;;;;;;2.67;2.30;;;;;;;24.85;18.86;100797.05;1796687;79;25779;-54
2023/05/11 12:58:13;;;;;;;6.12;1.98;;;;;;;24.83;18.48;100787.76;1796757;79;25578;-54
2023/05/11 13:00:58;;;;;;;2.80;1.77;;;;;;;24.83;18.83;100786.37;1796712;79;29661;-53
2023/05/11 13:03:29;;;;;;;5.37;2.05;;;;;;;25.02;19.02;100792.70;1797121;79;25186;-53
2023/05/11 13:06:12;;;;;;;7.17;2.15;;;;;;;25.01;18.85;100785.58;1797185;79;25439;-52
2023/05/11 13:08:47;;;;;;;4.97;2.10;;;;;;;25.03;18.83;100777.09;1797134;79;25478;-51
2023/05/11 13:11:21;;;;;;;7.05;3.70;;;;;;;24.85;18.60;100781.23;1797158;79;25414;-51
2023/05/11 13:14:08;;;;;;;3.17;2.30;;;;;;;24.61;19.26;100784.97;1797260;79;27507;-54
2023/05/11 13:16:35;;;;;;;2.98;2.10;;;;;;;24.63;19.26;100786.56;1795799;79;25589;-51
2023/05/11 13:19:04;;;;;;;2.25;1.90;;;;;;;24.72;19.06;100794.67;1797161;79;25357;-51
2023/05/11 13:21:32;;;;;;;4.28;1.80;;;;;;;24.53;18.35;100786.11;1797195;79;26138;-54
2023/05/11 13:24:05;;;;;;;3.90;2.00;;;;;;;24.40;19.29;100778.80;1797304;79;25532;-53
2023/05/11 13:26:30;;;;;;;2.90;2.05;;;;;;;24.64;19.17;100781.20;1796447;79;27787;-52
2023/05/11 13:28:56;;;;;;;2.10;1.90;;;;;;;24.59;19.18;100781.03;1797089;79;25763;-51
2023/05/11 13:31:22;;;;;;;3.50;1.80;;;;;;;24.56;19.16;100779.83;1797068;79;25356;-52
2023/05/11 13:33:50;;;;;;;4.60;2.15;;;;;;;24.59;19.41;100769.37;1796169;79;26271;-54
2023/05/11 13:36:18;;;;;;;7.15;2.02;;;;;;;24.78;19.73;100767.41;1795849;79;25711;-52
2023/05/11 14:02:52;;;;;;;4.83;2.08;;;;;;;23.87;19.74;100768.35;1794751;77;27275;-54
2023/05/11 14:05:19;;;;;;;3.33;1.85;;;;;;;23.75;20.03;100763.15;1812217;79;25542;-48